createdAt,value
2023-01-12T00:01:41.294Z,17.67
2023-01-12T00:04:04.530Z,16.65
2023-01-12T00:06:27.154Z,17.45
2023-01-12T00:08:51.559Z,17.23
2023-01-12T00:11:16.858Z,16.02
2023-01-12T00:13:39.525Z,17.63
2023-01-12T00:16:22.957Z,17.17
2023-01-12T00:18:47.770Z,17.55
2023-01-12T00:21:10.934Z,16.73
2023-01-12T00:23:33.590Z,17.17
2023-01-12T00:25:56.195Z,18.38
2023-01-12T00:28:18.885Z,16.27
2023-01-12T00:30:41.483Z,17.92
2023-01-12T00:33:04.103Z,19.47
2023-01-12T00:35:26.803Z,18.92
2023-01-12T00:37:49.731Z,21.38
2023-01-12T00:40:13.636Z,22.30
2023-01-12T00:42:54.419Z,23.00
2023-01-12T00:45:23.540Z,21.50
2023-01-12T00:47:46.286Z,17.67
2023-01-12T00:50:09.904Z,17.27
2023-01-12T00:52:32.781Z,15.93
2023-01-12T00:54:55.510Z,16.40
2023-01-12T00:57:19.433Z,16.93
2023-01-12T00:59:44.662Z,16.75
2023-01-12T01:02:07.338Z,16.20
2023-01-12T01:04:30.091Z,16.45
2023-01-12T01:06:52.687Z,16.35
2023-01-12T01:09:15.359Z,16.00
2023-01-12T01:11:38.226Z,15.90
2023-01-12T01:14:02.130Z,16.92
2023-01-12T01:16:25.224Z,17.02
2023-01-12T01:18:48.129Z,17.05
2023-01-12T01:21:11.990Z,17.13
2023-01-12T01:23:36.447Z,15.77
2023-01-12T01:26:06.991Z,16.83
2023-01-12T01:28:29.734Z,17.98
2023-01-12T01:30:52.368Z,19.38
2023-01-12T01:33:15.163Z,18.53
2023-01-12T01:35:37.810Z,19.35
2023-01-12T01:38:00.440Z,18.65
2023-01-12T01:40:23.405Z,20.33
2023-01-12T01:42:46.015Z,19.58
2023-01-12T01:45:13.363Z,18.23
2023-01-12T01:47:46.363Z,17.80
2023-01-12T01:50:23.127Z,18.08
2023-01-12T01:52:51.506Z,16.40
2023-01-12T01:55:57.302Z,16.75
2023-01-12T01:58:50.673Z,14.67
2023-01-12T02:01:13.351Z,17.73
2023-01-12T02:03:37.518Z,20.58
2023-01-12T02:06:00.696Z,20.02
2023-01-12T02:08:40.886Z,20.63
2023-01-12T02:11:03.745Z,19.13
2023-01-12T02:13:47.881Z,19.58
2023-01-12T02:16:21.383Z,18.15
2023-01-12T02:18:51.096Z,19.15
2023-01-12T02:21:28.197Z,18.60
2023-01-12T02:24:27.694Z,18.73
2023-01-12T02:27:38.624Z,18.90
2023-01-12T02:30:35.223Z,19.00
2023-01-12T02:33:45.228Z,18.67
2023-01-12T02:36:31.105Z,19.15
2023-01-12T02:39:06.075Z,16.80
2023-01-12T02:41:57.947Z,19.48
2023-01-12T02:44:30.091Z,22.27
2023-01-12T02:46:53.107Z,24.98
2023-01-12T02:49:19.691Z,23.48
2023-01-12T02:51:55.386Z,21.90
2023-01-12T02:54:20.733Z,19.27
2023-01-12T02:56:53.476Z,20.02
2023-01-12T02:59:24.869Z,18.02
2023-01-12T03:01:51.255Z,19.42
2023-01-12T03:04:17.604Z,17.73
2023-01-12T03:07:00.510Z,18.55
2023-01-12T03:09:43.183Z,16.95
2023-01-12T03:12:10.123Z,13.35
2023-01-12T03:14:36.493Z,11.48
2023-01-12T03:17:01.113Z,11.20
2023-01-12T03:19:33.665Z,10.32
2023-01-12T03:22:02.842Z,10.30
2023-01-12T03:24:28.549Z,9.98
2023-01-12T03:26:55.890Z,10.43
2023-01-12T03:29:40.228Z,9.67
2023-01-12T03:32:03.996Z,9.73
2023-01-12T03:34:28.115Z,9.13
2023-01-12T03:37:36.969Z,9.65
2023-01-12T03:40:10.849Z,8.75
2023-01-12T03:43:12.778Z,9.50
2023-01-12T03:46:11.596Z,9.27
2023-01-12T03:48:52.492Z,9.77
2023-01-12T03:51:27.532Z,9.45
2023-01-12T03:53:52.130Z,9.73
2023-01-12T03:56:17.715Z,10.17
2023-01-12T03:58:41.271Z,10.85
2023-01-12T04:01:04.834Z,10.82
2023-01-12T04:03:27.752Z,9.85
2023-01-12T04:05:50.363Z,10.18
2023-01-12T04:08:15.836Z,10.37
2023-01-12T04:10:38.466Z,9.77
2023-01-12T04:13:01.057Z,10.00
2023-01-12T04:15:23.677Z,9.82
2023-01-12T04:17:46.560Z,9.80
2023-01-12T04:20:11.021Z,9.33
2023-01-12T04:22:43.522Z,9.35
2023-01-12T04:25:08.667Z,10.00
2023-01-12T04:27:32.140Z,8.82
2023-01-12T04:29:55.036Z,9.15
2023-01-12T04:32:17.738Z,8.87
2023-01-12T04:34:40.424Z,9.60
2023-01-12T04:37:03.804Z,8.75
2023-01-12T04:39:26.439Z,8.10
2023-01-12T04:41:49.139Z,9.00
2023-01-12T04:44:11.988Z,8.73
2023-01-12T04:46:34.625Z,8.50
2023-01-12T04:48:57.371Z,9.45
2023-01-12T04:51:20.052Z,8.88
2023-01-12T04:53:42.782Z,8.90
2023-01-12T04:56:06.944Z,8.70
2023-01-12T04:58:29.569Z,8.32
2023-01-12T05:00:52.282Z,8.18
2023-01-12T05:03:15.557Z,7.47
2023-01-12T05:05:38.133Z,8.10
2023-01-12T05:08:31.133Z,7.67
2023-01-12T05:10:56.515Z,7.80
2023-01-12T05:13:19.350Z,8.32
2023-01-12T05:15:42.003Z,8.43
2023-01-12T05:18:04.831Z,8.60
2023-01-12T05:20:27.474Z,8.47
2023-01-12T05:22:51.480Z,8.05
2023-01-12T05:25:15.260Z,8.55
2023-01-12T05:27:38.154Z,8.70
2023-01-12T05:30:00.976Z,9.05
2023-01-12T05:32:24.235Z,9.40
2023-01-12T05:34:47.856Z,8.95
2023-01-12T05:37:10.446Z,9.73
2023-01-12T05:39:34.728Z,8.80
2023-01-12T05:42:20.443Z,9.82
2023-01-12T05:44:43.374Z,9.50
2023-01-12T05:47:06.059Z,9.63
2023-01-12T05:49:28.637Z,9.43
2023-01-12T05:51:51.593Z,9.40
2023-01-12T05:54:14.275Z,10.10
2023-01-12T05:56:36.913Z,9.43
2023-01-12T05:59:02.033Z,9.65
2023-01-12T06:01:25.313Z,9.57
2023-01-12T06:03:53.073Z,9.52
2023-01-12T06:06:15.903Z,9.45
2023-01-12T06:08:38.584Z,10.17
2023-01-12T06:11:03.117Z,14.73
2023-01-12T06:13:44.590Z,11.35
2023-01-12T06:16:09.373Z,10.85
2023-01-12T06:18:39.710Z,10.15
2023-01-12T06:21:03.851Z,10.53
2023-01-12T06:23:35.327Z,9.57
2023-01-12T06:26:03.118Z,10.38
2023-01-12T06:28:27.044Z,10.30
2023-01-12T06:30:58.620Z,10.93
2023-01-12T06:33:21.624Z,10.67
2023-01-12T06:35:49.224Z,11.30
2023-01-12T06:38:11.999Z,11.40
2023-01-12T06:40:34.652Z,10.63
2023-01-12T06:42:57.321Z,11.27
2023-01-12T06:45:20.267Z,11.17
2023-01-12T06:47:47.618Z,11.23
2023-01-12T06:50:11.022Z,12.38
2023-01-12T06:52:34.160Z,11.95
2023-01-12T06:55:01.583Z,12.20
2023-01-12T06:57:24.543Z,12.67
2023-01-12T06:59:47.521Z,12.77
2023-01-12T07:02:15.525Z,12.40
2023-01-12T07:04:38.825Z,15.88
2023-01-12T07:07:01.633Z,13.50
2023-01-12T07:09:24.409Z,13.93
2023-01-12T07:11:47.245Z,13.80
2023-01-12T07:14:09.878Z,13.15
2023-01-12T07:16:33.522Z,12.85
2023-01-12T07:18:56.462Z,12.50
2023-01-12T07:21:19.830Z,12.63
2023-01-12T07:23:43.727Z,12.50
2023-01-12T07:26:06.578Z,12.30
2023-01-12T07:28:31.423Z,12.40
2023-01-12T07:30:59.553Z,12.32
2023-01-12T07:33:22.318Z,12.20
2023-01-12T07:35:45.289Z,11.93
2023-01-12T07:38:08.629Z,11.90
2023-01-12T07:40:31.258Z,12.30
2023-01-12T07:43:05.098Z,12.95
2023-01-12T07:45:29.168Z,12.93
2023-01-12T07:47:56.038Z,12.30
2023-01-12T07:50:19.195Z,12.55
2023-01-12T07:52:42.133Z,12.20
2023-01-12T07:55:06.172Z,13.40
2023-01-12T07:57:29.518Z,14.90
2023-01-12T07:59:52.454Z,13.48
2023-01-12T08:02:19.441Z,12.68
2023-01-12T08:04:47.074Z,12.13
2023-01-12T08:07:15.003Z,12.20
2023-01-12T08:09:40.669Z,12.27
2023-01-12T08:12:06.227Z,12.02
2023-01-12T08:14:33.993Z,11.40
2023-01-12T08:17:01.502Z,12.57
2023-01-12T08:19:32.194Z,12.35
2023-01-12T08:21:59.536Z,11.70
2023-01-12T08:24:25.329Z,11.48
2023-01-12T08:26:50.892Z,11.75
2023-01-12T08:29:20.422Z,11.80
2023-01-12T08:31:44.045Z,11.23
2023-01-12T08:34:08.497Z,10.90
2023-01-12T08:36:31.911Z,11.55
2023-01-12T08:38:56.417Z,12.10
2023-01-12T08:41:35.344Z,11.10
2023-01-12T08:44:02.063Z,11.00
2023-01-12T08:46:24.972Z,10.97
2023-01-12T08:48:47.819Z,11.48
2023-01-12T08:51:10.643Z,11.05
2023-01-12T08:53:33.867Z,10.00
2023-01-12T08:55:57.209Z,11.68
2023-01-12T08:58:20.082Z,10.93
2023-01-12T09:00:42.865Z,13.30
2023-01-12T09:03:05.693Z,11.40
2023-01-12T09:05:28.377Z,11.10
2023-01-12T09:07:52.260Z,11.45
2023-01-12T09:10:15.697Z,11.03
2023-01-12T09:12:38.573Z,10.82
2023-01-12T09:15:01.237Z,11.82
2023-01-12T09:17:24.340Z,11.60
2023-01-12T09:19:49.993Z,11.77
2023-01-12T09:22:12.762Z,10.57
2023-01-12T09:24:37.614Z,10.65
2023-01-12T09:27:01.430Z,10.77
2023-01-12T09:29:24.446Z,9.93
2023-01-12T09:31:47.400Z,9.95
2023-01-12T09:34:11.053Z,9.20
2023-01-12T09:36:37.346Z,9.60
2023-01-12T09:39:01.575Z,11.48
2023-01-12T09:41:49.847Z,11.15
2023-01-12T09:45:01.865Z,11.00
2023-01-12T09:47:52.727Z,11.20
2023-01-12T09:50:22.433Z,11.43
2023-01-12T09:53:11.682Z,12.38
2023-01-12T09:56:15.169Z,13.40
2023-01-12T09:58:53.254Z,12.60
2023-01-12T10:01:28.884Z,13.57
2023-01-12T10:03:53.251Z,12.50
2023-01-12T10:06:19.184Z,12.40
2023-01-12T10:08:44.453Z,12.73
2023-01-12T10:11:37.800Z,12.75
2023-01-12T10:14:19.680Z,11.57
2023-01-12T10:17:03.355Z,12.18
2023-01-12T10:19:50.679Z,13.00
2023-01-12T10:22:37.824Z,13.57
2023-01-12T10:25:00.683Z,11.82
2023-01-12T10:27:23.324Z,11.27
2023-01-12T10:29:47.059Z,12.07
2023-01-12T10:32:12.523Z,11.23
2023-01-12T10:34:55.533Z,10.70
2023-01-12T10:37:18.572Z,10.57
2023-01-12T10:39:44.491Z,11.33
2023-01-12T10:42:41.783Z,10.60
2023-01-12T10:45:20.975Z,11.73
2023-01-12T10:47:45.623Z,15.35
2023-01-12T10:50:42.708Z,11.45
2023-01-12T10:53:13.951Z,11.27
2023-01-12T10:55:40.273Z,11.00
2023-01-12T10:58:03.010Z,11.30
2023-01-12T11:00:27.922Z,11.85
2023-01-12T11:02:51.134Z,9.85
2023-01-12T11:05:35.564Z,12.70
2023-01-12T11:08:00.224Z,10.23
2023-01-12T11:10:29.994Z,9.85
2023-01-12T11:12:59.147Z,9.68
2023-01-12T11:15:22.044Z,9.93
2023-01-12T11:18:07.775Z,10.87
2023-01-12T11:20:34.824Z,9.50
2023-01-12T11:23:01.955Z,9.82
2023-01-12T11:25:26.503Z,9.25
2023-01-12T11:28:01.950Z,10.43
2023-01-12T11:30:34.477Z,10.17
2023-01-12T11:33:09.943Z,9.15
2023-01-12T11:35:45.663Z,11.43
2023-01-12T11:38:16.023Z,9.85
2023-01-12T11:40:40.042Z,10.23
2023-01-12T11:43:42.312Z,10.70
2023-01-12T11:46:35.997Z,9.55
2023-01-12T11:49:01.922Z,10.13
2023-01-12T11:51:24.904Z,9.40
2023-01-12T11:53:47.804Z,10.40
2023-01-12T11:56:43.666Z,12.17
2023-01-12T11:59:15.901Z,9.85
2023-01-12T12:02:10.900Z,10.35
2023-01-12T12:04:43.058Z,9.50
2023-01-12T12:07:05.577Z,9.50
2023-01-12T12:09:43.180Z,9.57
2023-01-12T12:12:16.123Z,9.63
2023-01-12T12:15:16.114Z,9.43
2023-01-12T12:18:00.540Z,9.88
2023-01-12T12:20:33.175Z,9.85
2023-01-12T12:23:14.480Z,9.73
2023-01-12T12:25:59.176Z,9.88
2023-01-12T12:28:29.434Z,9.73
2023-01-12T12:31:13.870Z,9.32
2023-01-12T12:33:36.727Z,9.27
2023-01-12T12:36:02.899Z,10.07
2023-01-12T12:38:42.240Z,10.18
2023-01-12T12:41:49.516Z,10.30
2023-01-12T12:45:06.636Z,10.60
2023-01-12T12:48:02.947Z,10.02
2023-01-12T12:50:27.938Z,9.83
2023-01-12T12:53:15.047Z,10.07
2023-01-12T12:55:39.642Z,10.20
2023-01-12T12:58:06.544Z,9.77
2023-01-12T13:00:42.784Z,9.80
2023-01-12T13:03:05.678Z,10.20
2023-01-12T13:05:48.402Z,10.93
2023-01-12T13:08:25.918Z,11.52
2023-01-12T13:10:58.936Z,12.82
2023-01-12T13:13:29.598Z,12.57
2023-01-12T13:16:14.941Z,10.80
2023-01-12T13:18:53.140Z,10.30
2023-01-12T13:21:58.141Z,12.18
2023-01-12T13:24:41.869Z,11.10
2023-01-12T13:27:43.117Z,11.70
2023-01-12T13:30:32.128Z,11.40
2023-01-12T13:33:14.697Z,10.68
2023-01-12T13:35:38.909Z,11.18
2023-01-12T13:38:11.985Z,11.43
2023-01-12T13:40:34.968Z,11.55
2023-01-12T13:43:15.409Z,10.03
2023-01-12T13:45:38.253Z,11.60
2023-01-12T13:48:01.168Z,10.95
2023-01-12T13:50:27.642Z,10.65
2023-01-12T13:53:01.688Z,10.55
2023-01-12T13:55:28.093Z,10.60
2023-01-12T13:58:07.159Z,10.52
2023-01-12T14:00:32.376Z,10.43
2023-01-12T14:02:56.337Z,10.63
2023-01-12T14:05:29.073Z,10.30
2023-01-12T14:08:32.247Z,10.13
2023-01-12T14:11:14.344Z,10.32
2023-01-12T14:14:26.163Z,9.48
2023-01-12T14:17:41.389Z,9.60
2023-01-12T14:20:15.203Z,9.88
2023-01-12T14:22:38.113Z,10.00
2023-01-12T14:25:22.072Z,10.07
2023-01-12T14:27:56.261Z,10.30
2023-01-12T14:30:20.030Z,11.85
2023-01-12T14:32:44.922Z,11.93
2023-01-12T14:35:16.023Z,9.93
2023-01-12T14:37:39.243Z,9.70
2023-01-12T14:40:02.331Z,10.20
2023-01-12T14:42:43.569Z,9.75
2023-01-12T14:45:36.627Z,10.68
2023-01-12T14:48:26.095Z,9.50
2023-01-12T14:51:19.985Z,9.57
2023-01-12T14:53:46.031Z,9.68
2023-01-12T14:56:25.378Z,9.93
2023-01-12T14:58:49.028Z,9.75
2023-01-12T15:01:12.150Z,10.47
2023-01-12T15:03:43.080Z,10.77
2023-01-12T15:06:06.663Z,10.65
2023-01-12T15:08:30.949Z,9.73
2023-01-12T15:11:11.851Z,10.90
2023-01-12T15:13:36.464Z,10.30
2023-01-12T15:16:19.029Z,10.73
2023-01-12T15:19:00.716Z,11.32
2023-01-12T15:21:43.134Z,11.70
2023-01-12T15:24:45.471Z,12.00
2023-01-12T15:27:09.194Z,11.53
2023-01-12T15:29:32.112Z,11.82
2023-01-12T15:31:54.952Z,11.05
2023-01-12T15:34:17.980Z,10.52
2023-01-12T15:36:40.639Z,11.43
2023-01-12T15:39:03.311Z,11.53
2023-01-12T15:41:47.626Z,10.65
2023-01-12T15:44:18.738Z,10.38
2023-01-12T15:46:42.567Z,9.75
2023-01-12T15:49:05.844Z,10.65
2023-01-12T15:51:28.493Z,10.17
2023-01-12T15:53:51.315Z,9.95
2023-01-12T15:56:15.458Z,10.52
2023-01-12T15:58:38.141Z,9.63
2023-01-12T16:01:00.890Z,10.48
2023-01-12T16:03:54.641Z,13.10
2023-01-12T16:06:06.697Z,11.13
2023-01-12T16:08:29.270Z,10.35
2023-01-12T16:11:12.134Z,10.32
2023-01-12T16:13:35.199Z,10.25
2023-01-12T16:15:57.711Z,9.93
2023-01-12T16:18:20.378Z,10.18
2023-01-12T16:20:43.148Z,10.60
2023-01-12T16:23:06.012Z,10.35
2023-01-12T16:25:28.523Z,10.88
2023-01-12T16:27:51.332Z,11.17
2023-01-12T16:30:15.748Z,12.43
2023-01-12T16:32:38.528Z,15.55
2023-01-12T16:35:01.426Z,51.55
2023-01-12T16:37:27.564Z,48.28
2023-01-12T16:39:50.300Z,39.60
2023-01-12T16:42:13.123Z,28.85
2023-01-12T16:44:37.884Z,32.97
2023-01-12T16:47:00.604Z,31.83
2023-01-12T16:49:23.259Z,29.30
2023-01-12T16:51:46.387Z,27.67
2023-01-12T16:54:09.067Z,20.05
2023-01-12T16:56:32.027Z,15.50
2023-01-12T16:58:54.943Z,14.23
2023-01-12T17:01:21.822Z,14.13
2023-01-12T17:03:44.836Z,13.67
2023-01-12T17:06:16.587Z,13.73
2023-01-12T17:08:39.985Z,15.80
2023-01-12T17:11:11.324Z,14.70
2023-01-12T17:13:33.962Z,15.88
2023-01-12T17:15:56.769Z,14.00
2023-01-12T17:18:19.946Z,14.43
2023-01-12T17:20:42.729Z,15.27
2023-01-12T17:23:05.647Z,14.27
2023-01-12T17:25:28.984Z,13.05
2023-01-12T17:27:51.765Z,12.70
2023-01-12T17:30:14.859Z,12.50
2023-01-12T17:32:41.019Z,12.55
2023-01-12T17:35:09.546Z,12.85
2023-01-12T17:37:33.725Z,11.52
2023-01-12T17:39:59.236Z,11.50
2023-01-12T17:42:45.351Z,12.15
2023-01-12T17:45:08.542Z,11.35
2023-01-12T17:47:31.402Z,11.68
2023-01-12T17:49:54.784Z,12.05
2023-01-12T17:52:18.175Z,12.00
2023-01-12T17:54:41.890Z,11.43
2023-01-12T17:57:04.605Z,11.75
2023-01-12T17:59:27.362Z,11.07
2023-01-12T18:01:51.188Z,11.50
2023-01-12T18:04:14.253Z,11.10
2023-01-12T18:06:36.975Z,11.18
2023-01-12T18:08:59.895Z,12.50
2023-01-12T18:11:22.667Z,11.35
2023-01-12T18:13:46.282Z,11.70
2023-01-12T18:16:11.149Z,11.30
2023-01-12T18:18:34.110Z,11.55
2023-01-12T18:21:03.800Z,12.63
2023-01-12T18:23:26.764Z,10.93
2023-01-12T18:25:49.423Z,11.77
2023-01-12T18:28:12.263Z,11.40
2023-01-12T18:30:36.981Z,11.25
2023-01-12T18:33:00.131Z,11.15
2023-01-12T18:35:22.838Z,11.35
2023-01-12T18:37:47.229Z,11.32
2023-01-12T18:40:10.729Z,10.90
2023-01-12T18:42:53.070Z,11.13
2023-01-12T18:45:17.277Z,11.95
2023-01-12T18:47:58.459Z,10.77
2023-01-12T18:50:39.933Z,10.90
2023-01-12T18:53:21.553Z,11.50
2023-01-12T18:55:45.983Z,11.55
2023-01-12T18:58:08.690Z,11.82
2023-01-12T19:00:31.816Z,11.70
2023-01-12T19:02:54.565Z,11.90
2023-01-12T19:05:23.449Z,11.73
2023-01-12T19:07:59.034Z,11.93
2023-01-12T19:10:21.916Z,12.15
2023-01-12T19:12:46.095Z,12.45
2023-01-12T19:15:28.400Z,11.90
2023-01-12T19:17:51.292Z,12.30
2023-01-12T19:20:17.528Z,13.40
2023-01-12T19:22:59.144Z,13.50
2023-01-12T19:25:42.107Z,14.23
2023-01-12T19:28:24.328Z,13.52
2023-01-12T19:30:47.738Z,12.73
2023-01-12T19:33:19.444Z,12.85
2023-01-12T19:35:43.684Z,13.40
2023-01-12T19:38:06.714Z,11.90
2023-01-12T19:40:37.035Z,12.48
2023-01-12T19:43:20.651Z,12.10
2023-01-12T19:45:45.709Z,13.05
2023-01-12T19:48:09.628Z,15.20
2023-01-12T19:50:33.529Z,16.70
2023-01-12T19:52:56.474Z,19.52
2023-01-12T19:55:19.253Z,15.63
2023-01-12T19:57:43.283Z,14.75
2023-01-12T20:00:08.799Z,14.45
2023-01-12T20:02:37.182Z,14.07
2023-01-12T20:04:59.996Z,14.50
2023-01-12T20:07:22.757Z,14.47
2023-01-12T20:09:47.134Z,13.85
2023-01-12T20:12:10.238Z,14.85
2023-01-12T20:14:32.949Z,14.88
2023-01-12T20:16:55.626Z,14.00
2023-01-12T20:19:20.613Z,13.23
2023-01-12T20:21:43.785Z,13.07
2023-01-12T20:24:06.672Z,13.88
2023-01-12T20:26:29.358Z,13.23
2023-01-12T20:28:51.929Z,13.85
2023-01-12T20:31:16.230Z,12.20
2023-01-12T20:33:39.814Z,13.27
2023-01-12T20:36:02.655Z,13.50
2023-01-12T20:38:25.381Z,13.82
2023-01-12T20:40:48.029Z,13.30
2023-01-12T20:43:10.815Z,13.60
2023-01-12T20:45:33.374Z,13.48
2023-01-12T20:47:56.332Z,13.55
2023-01-12T20:50:19.177Z,13.35
2023-01-12T20:52:42.144Z,15.73
2023-01-12T20:55:05.701Z,16.23
2023-01-12T20:57:28.831Z,15.10
2023-01-12T20:59:52.200Z,14.68
2023-01-12T21:02:20.803Z,14.27
2023-01-12T21:04:43.424Z,14.05
2023-01-12T21:07:05.974Z,13.93
2023-01-12T21:09:28.602Z,14.75
2023-01-12T21:11:51.593Z,14.35
2023-01-12T21:14:14.205Z,14.18
2023-01-12T21:16:36.995Z,15.70
2023-01-12T21:18:59.753Z,14.53
2023-01-12T21:21:22.510Z,15.77
2023-01-12T21:23:45.240Z,16.77
2023-01-12T21:26:08.488Z,14.48
2023-01-12T21:28:31.094Z,16.98
2023-01-12T21:30:53.779Z,16.93
2023-01-12T21:33:17.671Z,16.55
2023-01-12T21:35:40.726Z,16.45
2023-01-12T21:38:04.500Z,15.60
2023-01-12T21:40:28.062Z,15.70
2023-01-12T21:43:08.739Z,15.80
2023-01-12T21:45:31.443Z,16.02
2023-01-12T21:47:55.475Z,16.73
2023-01-12T21:50:18.246Z,15.80
2023-01-12T21:52:42.045Z,17.13
2023-01-12T21:55:05.398Z,15.60
2023-01-12T21:57:28.092Z,16.70
2023-01-12T21:59:51.033Z,17.20
2023-01-12T22:02:14.243Z,18.55
2023-01-12T22:04:37.094Z,21.25
2023-01-12T22:06:59.730Z,23.00
2023-01-12T22:09:23.693Z,23.67
2023-01-12T22:11:46.740Z,23.63
2023-01-12T22:14:09.474Z,23.23
2023-01-12T22:16:32.448Z,22.48
2023-01-12T22:18:55.235Z,22.17
2023-01-12T22:21:19.792Z,20.98
2023-01-12T22:23:43.020Z,21.42
2023-01-12T22:26:11.624Z,21.07
2023-01-12T22:28:35.905Z,21.42
2023-01-12T22:30:58.524Z,22.15
2023-01-12T22:33:21.154Z,21.10
2023-01-12T22:35:43.705Z,21.77
2023-01-12T22:38:06.372Z,18.77
2023-01-12T22:40:29.167Z,15.85
2023-01-12T22:43:10.380Z,14.30
2023-01-12T22:45:34.451Z,13.68
2023-01-12T22:47:57.138Z,13.80
2023-01-12T22:50:20.215Z,17.83
2023-01-12T22:52:42.941Z,23.75
2023-01-12T22:55:06.140Z,27.17
2023-01-12T22:57:28.700Z,30.60
2023-01-12T22:59:54.360Z,32.42
2023-01-12T23:02:36.212Z,31.33
2023-01-12T23:04:59.878Z,27.85
2023-01-12T23:07:22.439Z,24.70
2023-01-12T23:09:46.774Z,25.08
2023-01-12T23:12:09.287Z,25.23
2023-01-12T23:14:32.782Z,24.73
2023-01-12T23:16:55.259Z,25.35
2023-01-12T23:19:17.781Z,25.98
2023-01-12T23:21:41.380Z,24.55
2023-01-12T23:24:04.885Z,24.98
2023-01-12T23:26:31.257Z,24.67
2023-01-12T23:28:56.583Z,24.30
2023-01-12T23:31:22.144Z,23.45
2023-01-12T23:33:45.129Z,22.13
2023-01-12T23:36:13.580Z,21.20
2023-01-12T23:38:36.422Z,19.70
2023-01-12T23:40:59.417Z,19.63
2023-01-12T23:43:22.256Z,18.63
2023-01-12T23:45:44.963Z,17.88
2023-01-12T23:48:07.906Z,19.02
2023-01-12T23:50:30.749Z,17.40
2023-01-12T23:52:53.543Z,18.58
2023-01-12T23:55:16.911Z,18.88
2023-01-12T23:57:39.585Z,18.33
